QTR2T EHAM-LTFM
Flight info
| Callsign | QTR2T |
|---|---|
| Flight time | N/A |
| Altitude | 33000 |
| Route | EDUPO Z739 MISGO DCT GMH DCT EKSAK DCT SWALM DCT GASKA DCT ENITA DCT ETVIS DCT BUDEX DCT TEKNO DCT OGVUN DCT DUZLA DCT MAVIR DCT TIMUR L606 GASRU DCT RILEX |
| Aircraft | B77L/H-SDE1E3FGHIJ1J3J4J5M1P2RWXYZ/LB1D1 |
Departure
| Time | 2026-05-07 15:14 |
|---|---|
| Airport | Amsterdam Airport Schiphol (EHAM) |
Arrival
| Time | N/A |
|---|---|
| Airport | İstanbul Airport (LTFM) |
| Time | Latitude | Longitude | Altitude | Speed | Heading |
|---|---|---|---|---|---|
| 2026-05-07 14:46 | 52.29520 | 4.76206 | 4 ft | 0 kts | 148° |
| 2026-05-07 14:49 | 52.29522 | 4.76204 | 4 ft | 2 kts | 147° |
| 2026-05-07 14:49 | 52.29537 | 4.76188 | 4 ft | 3 kts | 143° |
| 2026-05-07 14:49 | 52.29552 | 4.76167 | 5 ft | 3 kts | 136° |
| 2026-05-07 14:50 | 52.29566 | 4.76143 | 5 ft | 3 kts | 127° |
| 2026-05-07 14:50 | 52.29577 | 4.76116 | 5 ft | 3 kts | 107° |
| 2026-05-07 14:50 | 52.29579 | 4.76089 | 6 ft | 2 kts | 66° |
| 2026-05-07 14:50 | 52.29577 | 4.76082 | 6 ft | 1 kts | 58° |
| 2026-05-07 14:54 | 52.29594 | 4.76173 | 3 ft | 17 kts | 98° |
| 2026-05-07 14:54 | 52.29626 | 4.76314 | 3 ft | 12 kts | 3° |
| 2026-05-07 14:54 | 52.29644 | 4.76254 | 3 ft | 11 kts | 243° |
| 2026-05-07 14:54 | 52.29578 | 4.76088 | 3 ft | 20 kts | 238° |
| 2026-05-07 14:55 | 52.29513 | 4.75882 | 3 ft | 20 kts | 250° |
| 2026-05-07 14:55 | 52.29458 | 4.75683 | 3 ft | 13 kts | 239° |
| 2026-05-07 14:55 | 52.29438 | 4.75583 | 3 ft | 0 kts | 286° |
| 2026-05-07 14:58 | 52.29438 | 4.75582 | 3 ft | 0 kts | 286° |
| 2026-05-07 14:59 | 52.29439 | 4.75579 | 3 ft | 2 kts | 286° |
| 2026-05-07 15:00 | 52.29461 | 4.75531 | 3 ft | 9 kts | 321° |
| 2026-05-07 15:00 | 52.29542 | 4.75446 | 2 ft | 17 kts | 328° |
| 2026-05-07 15:00 | 52.29643 | 4.75342 | 4 ft | 17 kts | 328° |
| 2026-05-07 15:00 | 52.29750 | 4.75334 | 4 ft | 17 kts | 48° |
| 2026-05-07 15:01 | 52.29809 | 4.75505 | 3 ft | 17 kts | 61° |
| 2026-05-07 15:01 | 52.29871 | 4.75673 | 3 ft | 17 kts | 57° |
| 2026-05-07 15:01 | 52.29936 | 4.75838 | 3 ft | 17 kts | 57° |
| 2026-05-07 15:01 | 52.30001 | 4.76003 | 3 ft | 17 kts | 57° |
| 2026-05-07 15:02 | 52.30063 | 4.76171 | 3 ft | 17 kts | 60° |
| 2026-05-07 15:02 | 52.30125 | 4.76338 | 3 ft | 17 kts | 58° |
| 2026-05-07 15:02 | 52.30191 | 4.76503 | 3 ft | 17 kts | 57° |
| 2026-05-07 15:02 | 52.30256 | 4.76667 | 3 ft | 17 kts | 57° |
| 2026-05-07 15:03 | 52.30322 | 4.76831 | 3 ft | 17 kts | 60° |
| 2026-05-07 15:03 | 52.30382 | 4.77001 | 3 ft | 17 kts | 59° |
| 2026-05-07 15:03 | 52.30447 | 4.77165 | 3 ft | 17 kts | 55° |
| 2026-05-07 15:03 | 52.30508 | 4.77334 | 3 ft | 17 kts | 58° |
| 2026-05-07 15:04 | 52.30575 | 4.77497 | 3 ft | 17 kts | 50° |
| 2026-05-07 15:04 | 52.30677 | 4.77587 | 3 ft | 17 kts | 7° |
| 2026-05-07 15:04 | 52.30797 | 4.77600 | 3 ft | 17 kts | 3° |
| 2026-05-07 15:04 | 52.30917 | 4.77612 | 3 ft | 17 kts | 3° |
| 2026-05-07 15:05 | 52.31037 | 4.77623 | 3 ft | 17 kts | 2° |
| 2026-05-07 15:05 | 52.31157 | 4.77631 | 3 ft | 17 kts | 2° |
| 2026-05-07 15:05 | 52.31276 | 4.77644 | 3 ft | 17 kts | 3° |
| 2026-05-07 15:05 | 52.31396 | 4.77651 | 4 ft | 17 kts | 356° |
| 2026-05-07 15:06 | 52.31501 | 4.77571 | 3 ft | 17 kts | 318° |
| 2026-05-07 15:06 | 52.31571 | 4.77413 | 3 ft | 17 kts | 286° |
| 2026-05-07 15:06 | 52.31572 | 4.77220 | 3 ft | 17 kts | 265° |
| 2026-05-07 15:06 | 52.31563 | 4.77022 | 3 ft | 17 kts | 265° |
| 2026-05-07 15:07 | 52.31554 | 4.76830 | 3 ft | 17 kts | 266° |
| 2026-05-07 15:07 | 52.31551 | 4.76634 | 3 ft | 17 kts | 267° |
| 2026-05-07 15:07 | 52.31547 | 4.76508 | 4 ft | 11 kts | 267° |
| 2026-05-07 15:07 | 52.31544 | 4.76386 | 4 ft | 11 kts | 267° |
| 2026-05-07 15:08 | 52.31540 | 4.76263 | 4 ft | 11 kts | 267° |
| 2026-05-07 15:08 | 52.31537 | 4.76140 | 4 ft | 11 kts | 267° |
| 2026-05-07 15:08 | 52.31532 | 4.76018 | 4 ft | 11 kts | 265° |
| 2026-05-07 15:08 | 52.31527 | 4.75895 | 4 ft | 11 kts | 268° |
| 2026-05-07 15:09 | 52.31523 | 4.75773 | 3 ft | 11 kts | 267° |
| 2026-05-07 15:09 | 52.31519 | 4.75650 | 3 ft | 11 kts | 267° |
| 2026-05-07 15:09 | 52.31516 | 4.75527 | 3 ft | 11 kts | 267° |
| 2026-05-07 15:09 | 52.31512 | 4.75405 | 3 ft | 11 kts | 267° |
| 2026-05-07 15:10 | 52.31508 | 4.75282 | 3 ft | 11 kts | 267° |
| 2026-05-07 15:10 | 52.31503 | 4.75159 | 3 ft | 11 kts | 265° |
| 2026-05-07 15:10 | 52.31497 | 4.75035 | 3 ft | 11 kts | 266° |
| 2026-05-07 15:10 | 52.31493 | 4.74911 | 3 ft | 11 kts | 267° |
| 2026-05-07 15:11 | 52.31490 | 4.74788 | 3 ft | 11 kts | 268° |
| 2026-05-07 15:11 | 52.31514 | 4.74677 | 4 ft | 11 kts | 322° |
| 2026-05-07 15:11 | 52.31589 | 4.74660 | 4 ft | 11 kts | 3° |
| 2026-05-07 15:11 | 52.31656 | 4.74713 | 4 ft | 11 kts | 53° |
| 2026-05-07 15:12 | 52.31670 | 4.74836 | 3 ft | 11 kts | 87° |
| 2026-05-07 15:12 | 52.31671 | 4.74866 | 2 ft | 2 kts | 88° |
| 2026-05-07 15:12 | 52.31671 | 4.74870 | 2 ft | 0 kts | 88° |
| 2026-05-07 15:13 | 52.31671 | 4.74876 | 2 ft | 6 kts | 88° |
| 2026-05-07 15:13 | 52.31685 | 4.75281 | 2 ft | 80 kts | 85° |
| 2026-05-07 15:13 | 52.31749 | 4.76735 | 9 ft | 173 kts | 82° |
| 2026-05-07 15:14 | 52.31808 | 4.78829 | 871 ft | 181 kts | 84° |
| 2026-05-07 15:14 | 52.31877 | 4.80930 | 1828 ft | 195 kts | 85° |
| 2026-05-07 15:14 | 52.31959 | 4.83321 | 2097 ft | 227 kts | 85° |
| 2026-05-07 15:14 | 52.32031 | 4.86002 | 2586 ft | 244 kts | 91° |
| 2026-05-07 15:15 | 52.31613 | 4.88734 | 3271 ft | 254 kts | 114° |
| 2026-05-07 15:15 | 52.30849 | 4.91382 | 4063 ft | 261 kts | 113° |
| 2026-05-07 15:15 | 52.30365 | 4.93177 | 4724 ft | 262 kts | 113° |
| 2026-05-07 15:15 | 52.29640 | 4.95916 | 5721 ft | 262 kts | 113° |
| 2026-05-07 15:16 | 52.29026 | 4.98735 | 6629 ft | 267 kts | 107° |
| 2026-05-07 15:16 | 52.28525 | 5.01688 | 7425 ft | 273 kts | 106° |
| 2026-05-07 15:16 | 52.28030 | 5.04708 | 8238 ft | 278 kts | 107° |
| 2026-05-07 15:16 | 52.27517 | 5.07793 | 9040 ft | 285 kts | 107° |
| 2026-05-07 15:17 | 52.26984 | 5.10939 | 9848 ft | 291 kts | 106° |
| 2026-05-07 15:17 | 52.26433 | 5.14144 | 10558 ft | 298 kts | 107° |
| 2026-05-07 15:17 | 52.25843 | 5.17535 | 10826 ft | 324 kts | 107° |
| 2026-05-07 15:17 | 52.25197 | 5.21212 | 11027 ft | 350 kts | 107° |
| 2026-05-07 15:18 | 52.24483 | 5.25145 | 11319 ft | 368 kts | 110° |
| 2026-05-07 15:18 | 52.23275 | 5.28872 | 11786 ft | 378 kts | 127° |
| 2026-05-07 15:18 | 52.21679 | 5.32308 | 12597 ft | 383 kts | 128° |
| 2026-05-07 15:18 | 52.20076 | 5.35811 | 13493 ft | 387 kts | 127° |
| 2026-05-07 15:19 | 52.18484 | 5.39378 | 14321 ft | 392 kts | 127° |
| 2026-05-07 15:19 | 52.16888 | 5.43011 | 15055 ft | 397 kts | 126° |
| 2026-05-07 15:19 | 52.15281 | 5.46692 | 15832 ft | 401 kts | 126° |
| 2026-05-07 15:19 | 52.13661 | 5.50410 | 16581 ft | 405 kts | 126° |
| 2026-05-07 15:20 | 52.11481 | 5.55401 | 17573 ft | 412 kts | 126° |
| 2026-05-07 15:20 | 52.10354 | 5.57974 | 18055 ft | 415 kts | 126° |
| 2026-05-07 15:20 | 52.08672 | 5.61812 | 18723 ft | 419 kts | 126° |
| 2026-05-07 15:20 | 52.06970 | 5.65684 | 19370 ft | 423 kts | 126° |
| 2026-05-07 15:21 | 52.05209 | 5.69543 | 20006 ft | 426 kts | 130° |
| 2026-05-07 15:21 | 52.03271 | 5.73212 | 20640 ft | 430 kts | 133° |
| 2026-05-07 15:21 | 52.01260 | 5.76831 | 21270 ft | 434 kts | 133° |
| 2026-05-07 15:21 | 51.99248 | 5.80510 | 21883 ft | 438 kts | 132° |
| 2026-05-07 15:22 | 51.97238 | 5.84251 | 22518 ft | 442 kts | 132° |
| 2026-05-07 15:22 | 51.95214 | 5.88032 | 23100 ft | 446 kts | 132° |
| 2026-05-07 15:22 | 51.93172 | 5.91838 | 23708 ft | 449 kts | 132° |
| 2026-05-07 15:22 | 51.91113 | 5.95670 | 24220 ft | 453 kts | 132° |
| 2026-05-07 15:23 | 51.89038 | 5.99526 | 24731 ft | 456 kts | 133° |
| 2026-05-07 15:23 | 51.86946 | 6.03405 | 25221 ft | 459 kts | 133° |
| 2026-05-07 15:23 | 51.84836 | 6.07306 | 25709 ft | 462 kts | 133° |
| 2026-05-07 15:23 | 51.82701 | 6.11222 | 26206 ft | 465 kts | 133° |
| 2026-05-07 15:24 | 51.80548 | 6.15154 | 26691 ft | 469 kts | 133° |
| 2026-05-07 15:24 | 51.78382 | 6.19108 | 27169 ft | 472 kts | 133° |
| 2026-05-07 15:24 | 51.76200 | 6.23089 | 27629 ft | 475 kts | 133° |
| 2026-05-07 15:24 | 51.74006 | 6.27094 | 28074 ft | 478 kts | 133° |
| 2026-05-07 15:25 | 51.71797 | 6.31125 | 28526 ft | 481 kts | 133° |
| 2026-05-07 15:25 | 51.69604 | 6.35125 | 28954 ft | 484 kts | 133° |
| 2026-05-07 15:25 | 51.67369 | 6.39196 | 29362 ft | 486 kts | 133° |
| 2026-05-07 15:25 | 51.65118 | 6.43288 | 29749 ft | 489 kts | 133° |
| 2026-05-07 15:26 | 51.62854 | 6.47394 | 30112 ft | 492 kts | 133° |
| 2026-05-07 15:26 | 51.60575 | 6.51517 | 30416 ft | 494 kts | 133° |
| 2026-05-07 15:26 | 51.58294 | 6.55639 | 30870 ft | 493 kts | 133° |
| 2026-05-07 15:26 | 51.56016 | 6.59752 | 31320 ft | 491 kts | 133° |
| 2026-05-07 15:27 | 51.53745 | 6.63847 | 31744 ft | 490 kts | 133° |
| 2026-05-07 15:27 | 51.51475 | 6.67933 | 32157 ft | 490 kts | 133° |
| 2026-05-07 15:27 | 51.49207 | 6.72011 | 32534 ft | 490 kts | 133° |
| 2026-05-07 15:27 | 51.46935 | 6.76090 | 32917 ft | 490 kts | 133° |
| 2026-05-07 15:28 | 51.44654 | 6.80175 | 33039 ft | 493 kts | 133° |
| 2026-05-07 15:28 | 51.42467 | 6.84425 | 33029 ft | 495 kts | 126° |
| 2026-05-07 15:28 | 51.39048 | 6.93901 | 33036 ft | 490 kts | 115° |
| 2026-05-07 15:29 | 51.36674 | 7.04118 | 33039 ft | 489 kts | 110° |
| 2026-05-07 15:29 | 51.34404 | 7.14387 | 33061 ft | 490 kts | 110° |
| 2026-05-07 15:30 | 51.32089 | 7.24635 | 33065 ft | 491 kts | 110° |
| 2026-05-07 15:30 | 51.29739 | 7.34893 | 33057 ft | 492 kts | 110° |
| 2026-05-07 15:31 | 51.27375 | 7.45144 | 33042 ft | 492 kts | 110° |
| 2026-05-07 15:31 | 51.25000 | 7.55400 | 33052 ft | 493 kts | 110° |
| 2026-05-07 15:32 | 51.22616 | 7.65653 | 33067 ft | 493 kts | 110° |
| 2026-05-07 15:32 | 51.20224 | 7.75893 | 33067 ft | 493 kts | 110° |
| 2026-05-07 15:33 | 51.17825 | 7.86121 | 33048 ft | 493 kts | 110° |
| 2026-05-07 15:33 | 51.15488 | 7.96379 | 33048 ft | 492 kts | 109° |
| 2026-05-07 15:34 | 51.13289 | 8.06688 | 33062 ft | 492 kts | 108° |
| 2026-05-07 15:34 | 51.11077 | 8.16995 | 33048 ft | 492 kts | 108° |
| 2026-05-07 15:35 | 51.08835 | 8.27278 | 33046 ft | 492 kts | 109° |
| 2026-05-07 15:35 | 51.06579 | 8.37543 | 33048 ft | 492 kts | 109° |
| 2026-05-07 15:36 | 51.04318 | 8.47797 | 33044 ft | 492 kts | 109° |
| 2026-05-07 15:36 | 51.01797 | 8.57903 | 33070 ft | 492 kts | 117° |
| 2026-05-07 15:37 | 50.98164 | 8.67102 | 33064 ft | 492 kts | 128° |
| 2026-05-07 15:37 | 50.93922 | 8.75627 | 33046 ft | 493 kts | 128° |
| 2026-05-07 15:38 | 50.89688 | 8.84165 | 33046 ft | 493 kts | 128° |
| 2026-05-07 15:38 | 50.85478 | 8.92724 | 33065 ft | 492 kts | 128° |
| 2026-05-07 15:39 | 50.81271 | 9.01272 | 33067 ft | 492 kts | 128° |
| 2026-05-07 15:39 | 50.77057 | 9.09804 | 33044 ft | 492 kts | 128° |
| 2026-05-07 15:40 | 50.72845 | 9.18329 | 33044 ft | 492 kts | 127° |
| 2026-05-07 15:40 | 50.69275 | 9.27520 | 33057 ft | 492 kts | 117° |
| 2026-05-07 15:41 | 50.66140 | 9.37097 | 33045 ft | 492 kts | 117° |
| 2026-05-07 15:41 | 50.62971 | 9.46651 | 33042 ft | 492 kts | 118° |
| 2026-05-07 15:42 | 50.59766 | 9.56177 | 33042 ft | 492 kts | 118° |
| 2026-05-07 15:42 | 50.56544 | 9.65692 | 33068 ft | 492 kts | 118° |
| 2026-05-07 15:43 | 50.53315 | 9.75193 | 33044 ft | 493 kts | 118° |
| 2026-05-07 15:43 | 50.50101 | 9.84622 | 33050 ft | 493 kts | 118° |
| 2026-05-07 15:44 | 50.46859 | 9.94100 | 33046 ft | 493 kts | 118° |
| 2026-05-07 15:44 | 50.43606 | 10.03574 | 33034 ft | 493 kts | 118° |
| 2026-05-07 15:45 | 50.40346 | 10.13034 | 33038 ft | 494 kts | 119° |
| 2026-05-07 15:45 | 50.37071 | 10.22506 | 33039 ft | 495 kts | 118° |
| 2026-05-07 15:46 | 50.32550 | 10.37009 | 33051 ft | 494 kts | 114° |
| 2026-05-07 15:47 | 50.29790 | 10.46841 | 33034 ft | 493 kts | 114° |
| 2026-05-07 15:47 | 50.27013 | 10.56644 | 33026 ft | 493 kts | 114° |
| 2026-05-07 15:48 | 50.24216 | 10.66411 | 33033 ft | 492 kts | 114° |
| 2026-05-07 15:48 | 50.21406 | 10.76163 | 33048 ft | 493 kts | 114° |
| 2026-05-07 15:49 | 50.18586 | 10.85907 | 33030 ft | 493 kts | 115° |
| 2026-05-07 15:49 | 50.15755 | 10.95656 | 33052 ft | 493 kts | 115° |
| 2026-05-07 15:50 | 50.12915 | 11.05400 | 33025 ft | 493 kts | 115° |
| 2026-05-07 15:50 | 50.10069 | 11.15123 | 33023 ft | 494 kts | 115° |
| 2026-05-07 15:51 | 50.07209 | 11.24852 | 33030 ft | 494 kts | 115° |
| 2026-05-07 15:51 | 50.04334 | 11.34592 | 33038 ft | 496 kts | 115° |
| 2026-05-07 15:52 | 50.01449 | 11.44331 | 33015 ft | 496 kts | 115° |
| 2026-05-07 15:52 | 49.98550 | 11.54076 | 33039 ft | 496 kts | 115° |
| 2026-05-07 15:53 | 49.95644 | 11.63807 | 33018 ft | 497 kts | 115° |
| 2026-05-07 15:53 | 49.92730 | 11.73524 | 33003 ft | 496 kts | 115° |
| 2026-05-07 15:54 | 49.89812 | 11.83218 | 33008 ft | 496 kts | 115° |
| 2026-05-07 15:54 | 49.86887 | 11.92895 | 33001 ft | 495 kts | 116° |
| 2026-05-07 15:55 | 49.83976 | 12.02489 | 33002 ft | 495 kts | 116° |
| 2026-05-07 15:55 | 49.81037 | 12.12136 | 33004 ft | 495 kts | 116° |
| 2026-05-07 15:56 | 49.78089 | 12.21778 | 33004 ft | 496 kts | 116° |
| 2026-05-07 15:56 | 49.75130 | 12.31421 | 33015 ft | 496 kts | 117° |
| 2026-05-07 15:57 | 49.72156 | 12.41072 | 33019 ft | 498 kts | 117° |
| 2026-05-07 15:57 | 49.69640 | 12.51056 | 33018 ft | 501 kts | 107° |
| 2026-05-07 15:58 | 49.68184 | 12.61598 | 33021 ft | 502 kts | 102° |
| 2026-05-07 15:58 | 49.66757 | 12.72167 | 33006 ft | 503 kts | 104° |